createdAt,value
2022-08-19T00:01:22.009Z,16.51
2022-08-19T00:06:30.746Z,16.46
2022-08-19T00:11:39.853Z,16.38
2022-08-19T00:16:48.151Z,16.3
2022-08-19T00:21:56.251Z,16.28
2022-08-19T00:27:03.409Z,16.28
2022-08-19T00:32:11.924Z,16.21
2022-08-19T00:37:20.007Z,16.21
2022-08-19T00:42:27.384Z,16.2
2022-08-19T00:47:35.771Z,16.25
2022-08-19T00:52:43.676Z,16.2
2022-08-19T00:57:51.722Z,16.21
2022-08-19T01:03:00.206Z,16.22
2022-08-19T01:08:07.626Z,16.21
2022-08-19T01:13:15.096Z,16.22
2022-08-19T01:18:22.885Z,16.23
2022-08-19T01:23:29.499Z,16.25
2022-08-19T01:28:37.084Z,16.28
2022-08-19T01:33:50.868Z,16.21
2022-08-19T01:38:58.218Z,16.11
2022-08-19T01:44:06.268Z,16.06
2022-08-19T01:49:14.481Z,16.03
2022-08-19T01:54:23.439Z,16.02
2022-08-19T01:59:32.750Z,16.04
2022-08-19T02:04:41.041Z,15.92
2022-08-19T02:09:49.152Z,15.84
2022-08-19T02:14:56.871Z,15.88
2022-08-19T02:20:04.572Z,16.02
2022-08-19T02:25:12.369Z,16.07
2022-08-19T02:30:19.326Z,16.06
2022-08-19T02:35:27.448Z,16.04
2022-08-19T02:40:34.596Z,16.1
2022-08-19T02:45:42.592Z,16.14
2022-08-19T02:55:47.633Z,15.98
2022-08-19T03:00:53.683Z,16.0
2022-08-19T03:06:01.829Z,15.93
2022-08-19T03:11:09.016Z,15.88
2022-08-19T03:16:17.375Z,15.86
2022-08-19T03:21:24.898Z,15.92
2022-08-19T03:26:31.918Z,15.86
2022-08-19T03:31:39.768Z,15.88
2022-08-19T03:36:46.954Z,15.9
2022-08-19T03:41:54.137Z,15.8
2022-08-19T03:47:02.822Z,15.66
2022-08-19T03:52:09.996Z,15.66
2022-08-19T03:57:17.651Z,15.72
2022-08-19T04:02:24.414Z,15.85
2022-08-19T04:07:32.975Z,16.25
2022-08-19T04:12:41.586Z,16.48
2022-08-19T04:17:49.946Z,16.68
2022-08-19T04:22:57.528Z,16.85
2022-08-19T04:28:05.169Z,16.98
2022-08-19T04:33:13.196Z,17.06
2022-08-19T04:38:21.015Z,17.17
2022-08-19T04:43:28.484Z,17.36
2022-08-19T04:48:36.063Z,17.46
2022-08-19T04:53:44.706Z,17.57
2022-08-19T04:58:52.565Z,17.76
2022-08-19T05:04:00.248Z,17.91
2022-08-19T05:09:09.121Z,18.1
2022-08-19T05:14:16.542Z,18.09
2022-08-19T05:19:23.737Z,17.96
2022-08-19T05:24:32.177Z,18.03
2022-08-19T05:29:41.604Z,18.33
2022-08-19T05:34:50.963Z,18.52
2022-08-19T05:40:00.277Z,18.28
2022-08-19T05:45:07.422Z,18.04
2022-08-19T05:50:15.289Z,17.97
2022-08-19T05:55:23.312Z,18.07
2022-08-19T06:00:29.729Z,18.24
2022-08-19T06:05:36.893Z,18.44
2022-08-19T06:10:45.274Z,18.83
2022-08-19T06:15:53.696Z,19.08
2022-08-19T06:21:03.649Z,19.44
2022-08-19T06:26:10.819Z,19.81
2022-08-19T06:31:18.239Z,20.3
2022-08-19T06:36:25.950Z,20.52
2022-08-19T06:41:34.714Z,20.75
2022-08-19T06:46:42.132Z,20.75
2022-08-19T06:51:50.437Z,20.98
2022-08-19T06:56:58.157Z,20.98
2022-08-19T07:02:06.443Z,21.66
2022-08-19T07:07:15.928Z,22.3
2022-08-19T07:12:24.791Z,22.73
2022-08-19T07:17:32.525Z,22.57
2022-08-19T07:22:40.813Z,22.52
2022-08-19T07:27:48.906Z,22.93
2022-08-19T07:32:55.922Z,23.15
2022-08-19T07:38:03.780Z,23.64
2022-08-19T07:43:12.093Z,24.44
2022-08-19T07:48:20.211Z,25.12
2022-08-19T07:53:27.899Z,25.51
2022-08-19T07:58:36.891Z,25.36
2022-08-19T08:03:44.238Z,25.06
2022-08-19T08:08:50.812Z,24.93
2022-08-19T08:13:59.194Z,25.08
2022-08-19T08:19:07.369Z,25.11
2022-08-19T08:24:16.078Z,25.06
2022-08-19T08:29:23.417Z,25.3
2022-08-19T08:34:31.465Z,25.38
2022-08-19T08:39:39.669Z,25.72
2022-08-19T08:44:47.452Z,26.19
2022-08-19T08:49:54.784Z,26.72
2022-08-19T08:55:01.338Z,27.01
2022-08-19T09:00:08.542Z,26.86
2022-08-19T09:05:15.090Z,26.92
2022-08-19T09:10:23.583Z,27.44
2022-08-19T09:15:30.783Z,27.86
2022-08-19T09:20:38.602Z,27.7
2022-08-19T09:25:47.609Z,27.5
2022-08-19T09:30:55.189Z,27.8
2022-08-19T09:36:03.293Z,27.57
2022-08-19T09:41:10.653Z,27.3
2022-08-19T09:46:17.211Z,27.47
2022-08-19T09:51:24.565Z,27.39
2022-08-19T09:56:32.465Z,26.56
2022-08-19T10:02:21.714Z,26.29
2022-08-19T10:07:30.015Z,25.97
2022-08-19T10:12:37.660Z,26.7
2022-08-19T10:17:44.947Z,26.67
2022-08-19T10:22:54.254Z,26.88
2022-08-19T10:28:01.008Z,27.0
2022-08-19T10:33:09.019Z,27.06
2022-08-19T10:38:21.968Z,28.08
2022-08-19T10:43:31.529Z,28.19
2022-08-19T10:48:39.776Z,27.81
2022-08-19T10:53:47.134Z,28.11
2022-08-19T10:58:54.567Z,29.2
2022-08-19T11:04:01.693Z,30.66
2022-08-19T11:09:10.382Z,31.64
2022-08-19T11:14:18.092Z,31.76
2022-08-19T11:19:26.302Z,32.16
2022-08-19T11:24:33.865Z,32.25
2022-08-19T11:29:41.686Z,32.04
2022-08-19T11:34:48.342Z,32.61
2022-08-19T11:39:56.140Z,32.97
2022-08-19T11:45:03.450Z,31.5
2022-08-19T11:50:10.406Z,30.7
2022-08-19T11:55:18.216Z,29.72
2022-08-19T12:00:25.959Z,29.18
2022-08-19T12:05:34.999Z,28.94
2022-08-19T12:10:42.797Z,29.34
2022-08-19T12:15:49.984Z,28.82
2022-08-19T12:20:57.186Z,28.3
2022-08-19T12:26:05.018Z,27.97
2022-08-19T12:31:12.376Z,27.86
2022-08-19T12:36:19.996Z,27.99
2022-08-19T12:41:29.129Z,28.42
2022-08-19T12:46:35.769Z,29.74
2022-08-19T12:51:43.616Z,31.42
2022-08-19T12:56:51.825Z,32.0
2022-08-19T13:01:59.857Z,30.33
2022-08-19T13:07:07.740Z,29.6
2022-08-19T13:12:14.977Z,29.29
2022-08-19T13:17:22.652Z,28.62
2022-08-19T13:22:33.344Z,28.3
2022-08-19T13:27:40.596Z,27.97
2022-08-19T13:32:47.588Z,27.64
2022-08-19T13:37:55.795Z,27.39
2022-08-19T13:43:02.860Z,27.11
2022-08-19T13:48:09.827Z,26.9
2022-08-19T13:53:17.659Z,27.18
2022-08-19T13:58:24.856Z,27.52
2022-08-19T14:03:33.732Z,28.12
2022-08-19T14:08:41.465Z,29.86
2022-08-19T14:13:50.115Z,32.9
2022-08-19T14:19:00.566Z,34.48
2022-08-19T14:24:10.743Z,35.53
2022-08-19T14:29:18.618Z,35.06
2022-08-19T14:34:26.532Z,36.27
2022-08-19T14:39:33.978Z,36.25
2022-08-19T14:44:41.811Z,36.88
2022-08-19T14:49:50.087Z,36.47
2022-08-19T14:54:56.884Z,36.19
2022-08-19T15:00:04.696Z,36.03
2022-08-19T15:05:17.015Z,35.04
2022-08-19T15:10:22.968Z,35.56
2022-08-19T15:15:30.516Z,36.22
2022-08-19T15:20:37.370Z,34.47
2022-08-19T15:25:44.242Z,34.16
2022-08-19T15:30:51.715Z,33.27
2022-08-19T15:35:58.276Z,33.34
2022-08-19T15:41:05.490Z,33.38
2022-08-19T15:46:13.288Z,32.77
2022-08-19T15:51:19.894Z,32.84
2022-08-19T15:56:27.131Z,32.45
2022-08-19T16:01:34.726Z,32.26
2022-08-19T16:06:41.659Z,32.06
2022-08-19T16:11:49.817Z,31.47
2022-08-19T16:16:57.201Z,31.14
2022-08-19T16:22:05.666Z,31.16
2022-08-19T16:27:12.879Z,31.18
2022-08-19T16:32:21.212Z,30.75
2022-08-19T16:37:27.898Z,30.4
2022-08-19T16:42:35.825Z,30.0
2022-08-19T16:47:43.014Z,29.47
2022-08-19T16:52:51.122Z,28.58
2022-08-19T16:57:59.184Z,27.72
2022-08-19T17:03:08.093Z,26.99
2022-08-19T17:08:15.614Z,26.46
2022-08-19T17:13:23.253Z,26.24
2022-08-19T17:18:30.616Z,26.0
2022-08-19T17:23:38.651Z,25.86
2022-08-19T17:28:45.048Z,25.53
2022-08-19T17:33:52.217Z,25.08
2022-08-19T17:38:58.777Z,24.75
2022-08-19T17:44:07.828Z,24.38
2022-08-19T17:49:15.669Z,24.14
2022-08-19T17:54:23.317Z,23.8
2022-08-19T17:59:30.188Z,23.58
2022-08-19T18:04:38.328Z,23.1
2022-08-19T18:09:46.443Z,22.67
2022-08-19T18:14:54.294Z,22.43
2022-08-19T18:20:02.492Z,22.14
2022-08-19T18:25:09.374Z,21.88
2022-08-19T18:30:17.442Z,21.8
2022-08-19T18:35:25.384Z,21.62
2022-08-19T18:40:32.475Z,21.51
2022-08-19T18:45:40.459Z,21.44
2022-08-19T18:50:47.292Z,21.14
2022-08-19T18:55:55.648Z,20.7
2022-08-19T19:01:03.323Z,20.4
2022-08-19T19:06:11.889Z,20.15
2022-08-19T19:11:19.763Z,20.22
2022-08-19T19:16:26.878Z,20.47
2022-08-19T19:21:35.146Z,20.64
2022-08-19T19:26:43.038Z,20.76
2022-08-19T19:31:49.712Z,20.86
2022-08-19T19:36:57.213Z,20.81
2022-08-19T19:42:04.378Z,20.83
2022-08-19T19:47:12.842Z,20.92
2022-08-19T19:52:20.549Z,21.1
2022-08-19T19:57:28.679Z,21.11
2022-08-19T20:02:36.076Z,21.1
2022-08-19T20:07:44.726Z,21.08
2022-08-19T20:12:52.051Z,21.06
2022-08-19T20:18:00.409Z,21.0
2022-08-19T20:23:08.642Z,20.94
2022-08-19T20:28:16.425Z,20.88
2022-08-19T20:33:23.462Z,20.75
2022-08-19T20:38:30.669Z,20.65
2022-08-19T20:43:37.863Z,20.52
2022-08-19T20:48:45.057Z,20.44
2022-08-19T20:53:52.257Z,20.52
2022-08-19T20:58:59.715Z,20.6
2022-08-19T21:04:07.815Z,20.47
2022-08-19T21:09:16.197Z,20.29
2022-08-19T21:14:25.039Z,20.18
2022-08-19T21:19:33.400Z,20.04
2022-08-19T21:24:40.601Z,19.89
2022-08-19T21:29:49.082Z,19.86
2022-08-19T21:34:56.849Z,19.85
2022-08-19T21:40:04.556Z,19.83
2022-08-19T21:45:13.118Z,19.9
2022-08-19T21:50:20.463Z,19.78
2022-08-19T21:55:26.934Z,18.82
2022-08-19T22:00:34.170Z,18.32
2022-08-19T22:05:42.278Z,18.11
2022-08-19T22:10:56.446Z,17.96
2022-08-19T22:16:05.120Z,17.85
2022-08-19T22:21:13.728Z,17.8
2022-08-19T22:26:20.376Z,17.82
2022-08-19T22:31:27.727Z,17.79
2022-08-19T22:36:35.560Z,17.72
2022-08-19T22:41:43.761Z,17.72
2022-08-19T22:46:50.582Z,17.78
2022-08-19T22:51:58.301Z,17.9
2022-08-19T22:57:09.560Z,17.85
2022-08-19T22:58:43.079Z,17.83
2022-08-19T23:03:49.977Z,17.78
2022-08-19T23:08:56.571Z,17.76
2022-08-19T23:14:05.014Z,17.78
2022-08-19T23:19:13.102Z,17.78
2022-08-19T23:24:21.726Z,17.79
2022-08-19T23:29:29.768Z,17.79
2022-08-19T23:34:37.050Z,17.75
2022-08-19T23:39:43.572Z,17.75
2022-08-19T23:44:51.448Z,17.76
2022-08-19T23:50:00.407Z,17.93
2022-08-19T23:55:09.514Z,18.07
